Marion, Utah
Current Conditions -  °F | °C
As of 1:53 AM on Saturday 25 Oct 2014 (Local Time) from KEVW Reporting Station
Clear Clear  
Wind Chill: 51°   Ceiling: Unl
Heat Index: 51°   Visibility: 10mi
Dew Point: 20°   Wind: 7mph
Humidity: 29%   Direction: 150°SSE
Pressure: 30.27"   Gusts: NA
Location:  40.8065°N, 110.723°W
Report Text: KEVW 250753Z AUTO 15006KT 10SM CLR 11/M07 A3027 RMK AO2 SLP168 T01061067 TSNO
Loading
Personal Weather Stations






























Interactive Weather Map
Tropical Storm Tracking
New forecast layout! Learn more

10-Day Weather Forecast

Advertisements
Track Severe Weather on mobile